Time;durP1;ratioP1;P1;durP2;ratioP2;P2;SDS_P1;SDS_P2;PMS_P1;PMS_P2;Temp;Humidity;BMP_temperature;BMP_pressure;BME280_temperature;BME280_humidity;BME280_pressure;Samples;Min_cycle;Max_cycle;Signal;HPM_P1;HPM_P2
2022/09/22 00:00:43;;;;;;;5.13;4.73;;;11.00;97.80;;;11.16;64.66;95172.38;5026237;28;20481;-56
2022/09/22 00:03:12;;;;;;;5.37;4.90;;;11.00;98.10;;;11.16;64.49;95172.38;5026385;28;20460;-53
2022/09/22 00:05:39;;;;;;;7.90;5.13;;;11.00;97.90;;;11.16;64.55;95164.47;5026061;28;20468;-55
2022/09/22 00:08:07;;;;;;;4.10;3.80;;;11.00;98.00;;;11.17;64.91;95168.75;5026250;28;20452;-55
2022/09/22 00:10:34;;;;;;;4.93;4.53;;;11.00;98.20;;;11.17;64.59;95174.00;5025811;28;20585;-56
2022/09/22 00:13:02;;;;;;;4.57;4.27;;;11.00;98.00;;;11.16;64.74;95167.09;5026009;28;20831;-55
2022/09/22 00:15:29;;;;;;;4.23;3.93;;;11.00;98.20;;;11.17;64.62;95169.59;5025929;28;20539;-54
2022/09/22 00:17:56;;;;;;;4.67;4.27;;;11.00;98.10;;;11.16;64.71;95165.28;5026106;28;20456;-55
2022/09/22 00:20:25;;;;;;;5.03;3.60;;;11.00;98.10;;;11.17;64.93;95163.47;5025751;28;21122;-55
2022/09/22 00:22:52;;;;;;;7.10;4.60;;;11.00;98.20;;;11.16;64.87;95167.09;5026086;28;20457;-55
2022/09/22 00:25:19;;;;;;;5.53;3.53;;;11.00;98.20;;;11.16;64.68;95167.91;5025638;28;21000;-55
2022/09/22 00:27:47;;;;;;;4.07;3.87;;;11.00;98.20;;;11.15;64.59;95160.16;5025821;28;20452;-55
2022/09/22 00:30:15;;;;;;;4.10;3.77;;;11.00;98.20;;;11.13;64.55;95163.75;5026103;28;20484;-55
2022/09/22 00:32:42;;;;;;;4.23;4.03;;;11.00;98.10;;;11.10;64.50;95156.13;5025774;28;20463;-56
2022/09/22 00:35:10;;;;;;;4.07;3.70;;;11.00;98.10;;;11.10;64.69;95157.94;5021782;28;20496;-54
2022/09/22 00:37:38;;;;;;;4.10;3.90;;;10.90;98.10;;;11.09;64.88;95162.38;5025956;28;20456;-54
2022/09/22 00:40:07;;;;;;;4.77;4.47;;;11.00;98.30;;;11.09;64.91;95162.38;5025376;28;20468;-56
2022/09/22 00:42:35;;;;;;;4.17;3.90;;;11.00;98.40;;;11.08;64.70;95158.06;5025045;28;20961;-56
2022/09/22 00:45:02;;;;;;;4.90;4.33;;;11.00;98.30;;;11.09;65.21;95161.53;5025878;28;20496;-57
2022/09/22 00:47:37;;;;;;;4.70;4.30;;;10.90;98.50;;;11.09;64.73;95165.00;5026261;28;20456;-57
2022/09/22 00:50:10;;;;;;;6.33;4.33;;;10.90;98.20;;;11.09;65.07;95164.16;5022999;28;20472;-55
2022/09/22 00:52:42;;;;;;;4.63;4.23;;;10.90;98.30;;;11.09;64.70;95162.38;5025649;28;20507;-56
2022/09/22 00:55:13;;;;;;;5.00;4.70;;;10.90;98.30;;;11.08;64.68;95160.69;5028234;28;20566;-56
2022/09/22 00:57:40;;;;;;;4.33;3.93;;;10.90;98.30;;;11.09;64.63;95167.66;5029320;28;20945;-57
2022/09/22 01:00:09;;;;;;;4.83;4.53;;;11.00;98.30;;;11.10;64.92;95158.75;5026189;28;20469;-54
2022/09/22 01:02:37;;;;;;;5.30;4.90;;;10.90;98.40;;;11.10;64.76;95156.13;5029965;28;20888;-57
2022/09/22 01:05:05;;;;;;;4.93;4.57;;;11.00;98.30;;;11.10;64.77;95150.84;5029467;28;20555;-55
2022/09/22 01:07:32;;;;;;;4.90;4.20;;;10.90;98.30;;;11.09;64.64;95151.00;5025945;28;20459;-54
2022/09/22 01:10:01;;;;;;;5.00;3.80;;;11.00;98.30;;;11.07;64.63;95148.50;5030546;28;20468;-55
2022/09/22 01:12:29;;;;;;;4.40;4.00;;;10.90;98.10;;;11.04;64.73;95148.78;5030024;28;20514;-55
2022/09/22 01:15:18;;;;;;;3.90;3.60;;;10.90;98.10;;;11.00;64.66;95144.75;5027218;28;20499;-54
2022/09/22 01:17:55;;;;;;;4.17;3.97;;;10.90;98.20;;;10.96;64.93;95148.63;5026219;28;21038;-56
2022/09/22 01:20:56;;;;;;;4.63;4.13;;;10.90;98.30;;;10.94;65.12;95145.31;5029092;28;21012;-56
2022/09/22 01:24:00;;;;;;;5.30;4.17;;;10.80;98.30;;;10.93;64.91;95147.09;5026769;28;20448;-56
2022/09/22 01:27:05;;;;;;;4.13;3.83;;;10.80;98.40;;;10.90;65.19;95144.72;5028952;28;20467;-58
2022/09/22 01:30:18;;;;;;;3.53;3.33;;;10.80;98.40;;;10.89;64.95;95144.84;5025447;28;20567;-55
2022/09/22 01:32:53;;;;;;;4.70;4.20;;;10.70;98.30;;;10.87;64.77;95144.16;5026970;28;20510;-55
2022/09/22 01:35:25;;;;;;;4.17;3.77;;;10.80;98.40;;;10.84;64.98;95139.19;5025190;28;20498;-55
2022/09/22 01:37:58;;;;;;;4.23;3.90;;;10.70;98.30;;;10.83;64.90;95146.25;5027427;28;20981;-54
2022/09/22 01:40:31;;;;;;;4.23;3.87;;;10.70;98.40;;;10.82;65.01;95135.84;5026069;28;20471;-56
2022/09/22 01:43:05;;;;;;;5.37;3.73;;;10.70;98.50;;;10.80;65.10;95143.03;5029241;28;20819;-56
2022/09/22 01:45:34;;;;;;;4.10;3.80;;;10.70;98.40;;;10.75;64.92;95141.66;5025414;28;20945;-55
2022/09/22 01:48:05;;;;;;;4.53;4.23;;;10.60;98.30;;;10.73;65.05;95130.41;5029026;28;20542;-53
2022/09/22 01:50:35;;;;;;;4.30;3.90;;;10.60;98.40;;;10.71;65.07;95134.16;5028080;28;21060;-56
2022/09/22 01:53:06;;;;;;;3.80;3.60;;;10.60;98.60;;;10.71;65.36;95136.78;5028326;28;20451;-55
2022/09/22 01:55:36;;;;;;;3.90;3.70;;;10.60;98.70;;;10.69;65.45;95139.56;5028060;28;20504;-55
2022/09/22 01:58:05;;;;;;;3.50;3.30;;;10.50;98.80;;;10.69;65.34;95131.66;5028041;28;20449;-55
2022/09/22 02:00:34;;;;;;;4.37;3.97;;;10.60;98.80;;;10.68;65.42;95135.25;5027824;28;20476;-55
2022/09/22 02:03:04;;;;;;;4.20;3.90;;;10.50;98.80;;;10.69;65.66;95134.31;5028165;28;21059;-57
2022/09/22 02:05:33;;;;;;;4.10;3.80;;;10.60;98.90;;;10.68;65.52;95137.88;5027762;28;20983;-53
2022/09/22 02:08:01;;;;;;;4.47;4.07;;;10.60;99.00;;;10.69;65.28;95136.94;5027710;28;20449;-56
2022/09/22 02:10:36;;;;;;;4.27;3.90;;;10.60;98.90;;;10.69;65.43;95139.56;5024641;28;20473;-57
2022/09/22 02:13:04;;;;;;;7.43;4.10;;;10.60;99.00;;;10.68;65.56;95147.59;5028514;28;20477;-57
2022/09/22 02:18:20;;;;;;;3.93;3.63;;;10.60;99.00;;;10.68;65.56;95137.06;5028250;28;20872;-56
2022/09/22 02:20:48;;;;;;;3.87;3.67;;;10.60;99.10;;;10.69;65.51;95139.56;5027972;28;20472;-56
2022/09/22 02:23:15;;;;;;;4.50;4.10;;;10.50;99.10;;;10.69;65.63;95138.72;5028063;28;20973;-54
2022/09/22 02:25:43;;;;;;;6.27;4.10;;;10.50;99.00;;;10.69;65.58;95136.06;5028222;28;20846;-55
2022/09/22 02:28:10;;;;;;;4.40;4.00;;;10.60;99.10;;;10.68;65.58;95137.88;5027944;28;20518;-55
2022/09/22 02:30:39;;;;;;;4.10;3.80;;;10.50;99.00;;;10.68;65.71;95134.44;5027556;28;21032;-56
2022/09/22 02:33:06;;;;;;;7.70;4.50;;;10.60;99.20;;;10.66;66.06;95144.25;5027932;28;20456;-55
2022/09/22 02:35:35;;;;;;;4.90;4.60;;;10.50;99.40;;;10.65;65.70;95138.16;5027532;28;20500;-57
2022/09/22 02:38:03;;;;;;;4.60;4.27;;;10.50;99.10;;;10.62;65.48;95137.59;5027364;28;20456;-56
2022/09/22 02:40:33;;;;;;;4.50;4.17;;;10.50;98.90;;;10.59;65.55;95130.78;5027634;28;20538;-55
2022/09/22 02:43:02;;;;;;;5.07;4.67;;;10.50;98.90;;;10.57;65.72;95133.56;5027370;28;20535;-55
2022/09/22 02:45:32;;;;;;;4.90;4.60;;;10.50;99.10;;;10.55;65.66;95137.28;5027537;28;20488;-57
2022/09/22 02:48:03;;;;;;;4.40;4.17;;;10.50;99.20;;;10.54;65.75;95146.16;5027713;28;20453;-57
2022/09/22 02:50:30;;;;;;;5.47;4.30;;;10.40;99.30;;;10.54;65.80;95146.16;5027572;28;20487;-56
2022/09/22 02:53:01;;;;;;;4.70;4.30;;;10.40;99.10;;;10.53;65.79;95142.69;5027200;28;20456;-56
2022/09/22 02:55:28;;;;;;;5.80;5.40;;;10.40;99.10;;;10.51;66.16;95144.59;5027212;28;21028;-54
2022/09/22 02:57:56;;;;;;;4.10;3.90;;;10.40;99.40;;;10.50;65.72;95145.59;5027462;28;20472;-55
2022/09/22 03:00:23;;;;;;;4.80;4.50;;;10.40;99.20;;;10.50;65.81;95144.75;5027373;28;20476;-56
2022/09/22 03:02:50;;;;;;;4.40;4.10;;;10.40;99.20;;;10.49;65.96;95153.63;5027394;28;20534;-57
2022/09/22 03:05:19;;;;;;;5.37;4.97;;;10.40;99.30;;;10.49;66.00;95145.72;5027262;28;20553;-55
2022/09/22 03:07:46;;;;;;;5.70;5.30;;;10.40;99.40;;;10.50;66.22;95158.75;5026958;28;20770;-55
2022/09/22 03:10:13;;;;;;;4.73;4.30;;;10.40;99.40;;;10.52;66.62;95158.63;5026990;28;20472;-56
2022/09/22 03:12:42;;;;;;;4.70;4.30;;;10.40;99.90;;;10.54;66.32;95151.41;5027297;28;20457;-55
2022/09/22 03:15:10;;;;;;;5.60;5.00;;;10.40;99.90;;;10.56;66.25;95152.94;5026584;28;20496;-54
2022/09/22 03:17:38;;;;;;;5.07;4.67;;;10.40;99.70;;;10.59;66.42;95144.78;5025825;28;20453;-55
2022/09/22 03:20:08;;;;;;;5.40;5.07;;;10.50;99.80;;;10.62;66.25;95148.94;5027020;28;20974;-55
2022/09/22 03:22:36;;;;;;;6.77;6.13;;;10.50;99.80;;;10.64;66.01;95160.16;5026878;28;20452;-57
2022/09/22 03:25:04;;;;;;;5.63;5.13;;;10.50;99.60;;;10.66;66.13;95154.75;5027162;28;20480;-56
2022/09/22 03:27:31;;;;;;;11.73;5.43;;;10.50;99.70;;;10.68;65.99;95160.75;5027149;28;20614;-56
2022/09/22 03:29:59;;;;;;;5.83;5.30;;;10.60;99.60;;;10.67;66.43;95157.25;5026769;28;20507;-57
2022/09/22 03:32:26;;;;;;;4.93;4.53;;;10.60;99.70;;;10.70;66.06;95159.63;5026382;28;20456;-57
2022/09/22 03:34:53;;;;;;;5.10;4.67;;;10.60;99.70;;;10.71;66.12;95155.22;5026436;28;20484;-57
2022/09/22 03:37:21;;;;;;;6.20;5.70;;;10.60;99.60;;;10.72;66.37;95149.81;5025953;28;20460;-56
2022/09/22 03:39:49;;;;;;;5.70;5.20;;;10.60;99.70;;;10.74;66.14;95152.31;5026798;28;20465;-56
2022/09/22 03:42:16;;;;;;;5.40;5.00;;;10.60;99.80;;;10.77;66.19;95149.41;5026276;28;20445;-55
2022/09/22 03:44:44;;;;;;;5.60;5.10;;;10.60;99.70;;;10.79;66.29;95157.19;5026672;28;20886;-56
2022/09/22 03:47:11;;;;;;;5.60;5.03;;;10.60;99.70;;;10.82;66.02;95151.66;5026574;28;20460;-57
2022/09/22 03:49:38;;;;;;;5.53;5.07;;;10.70;99.70;;;10.82;66.05;95152.47;5026589;28;20838;-54
2022/09/22 03:52:05;;;;;;;6.17;5.67;;;10.70;99.60;;;10.83;65.97;95156.78;5025973;28;20988;-54
2022/09/22 03:54:34;;;;;;;5.97;5.50;;;10.70;99.60;;;10.84;66.04;95141.81;5022610;28;20476;-55
2022/09/22 03:57:02;;;;;;;6.40;4.60;;;10.70;99.50;;;10.87;65.98;95154.69;5025873;28;20756;-56
2022/09/22 03:59:30;;;;;;;5.80;5.23;;;10.70;99.70;;;10.89;65.93;95152.75;5026293;28;20484;-56
2022/09/22 04:01:57;;;;;;;5.90;5.40;;;10.80;99.70;;;10.92;66.44;95155.97;5022730;28;20544;-56
2022/09/22 04:04:24;;;;;;;5.80;5.40;;;10.80;99.90;;;10.94;66.32;95148.75;5025663;28;20489;-56
2022/09/22 04:06:52;;;;;;;9.50;5.60;;;10.80;99.90;;;10.99;66.33;95158.06;5025587;28;20468;-56
2022/09/22 04:09:19;;;;;;;5.40;5.00;;;10.80;99.90;;;11.02;66.36;95157.78;5021919;28;20500;-55
2022/09/22 04:11:46;;;;;;;5.27;4.73;;;10.90;99.90;;;11.06;66.42;95156.53;5027090;28;20926;-56
2022/09/22 04:14:15;;;;;;;5.30;4.77;;;10.90;99.90;;;11.07;66.40;95164.28;5025895;28;20473;-56
2022/09/22 04:16:42;;;;;;;6.83;6.23;;;10.90;99.90;;;11.09;66.18;95162.38;5025841;28;20524;-57
2022/09/22 04:19:10;;;;;;;5.33;4.93;;;10.90;99.80;;;11.12;66.11;95161.25;5025683;28;20468;-57
2022/09/22 04:21:37;;;;;;;6.67;5.00;;;10.90;99.80;;;11.15;66.31;95154.91;5026038;28;20457;-57
2022/09/22 04:24:10;;;;;;;6.10;5.60;;;11.00;99.90;;;11.16;66.37;95157.38;5025730;28;20917;-55
2022/09/22 04:26:37;;;;;;;5.17;4.80;;;11.00;99.90;;;11.19;66.26;95162.38;5023934;28;20531;-56
2022/09/22 04:29:05;;;;;;;5.67;5.17;;;11.00;99.90;;;11.20;66.46;95152.69;5025449;28;21003;-56
2022/09/22 04:31:33;;;;;;;8.27;6.33;;;11.00;99.90;;;11.21;66.09;95156.97;5025143;28;20691;-57
2022/09/22 04:34:01;;;;;;;6.40;5.90;;;11.10;99.90;;;11.23;66.15;95155.88;5025105;28;20477;-57
2022/09/22 04:36:28;;;;;;;7.20;6.63;;;11.10;99.90;;;11.25;66.17;95159.22;5025330;28;20493;-56
2022/09/22 04:38:56;;;;;;;14.13;6.67;;;11.10;99.90;;;11.28;66.29;95172.09;5025806;28;20469;-55
2022/09/22 04:41:23;;;;;;;7.50;6.90;;;11.10;99.90;;;11.29;67.08;95163.25;5025999;28;20896;-56
2022/09/22 04:43:50;;;;;;;6.10;5.50;;;11.10;99.90;;;11.31;66.66;95168.38;5025355;28;20539;-58
2022/09/22 04:46:17;;;;;;;5.77;5.30;;;11.20;99.90;;;11.33;66.60;95163.78;5026248;28;20893;-57
2022/09/22 04:48:46;;;;;;;7.13;6.50;;;11.20;99.90;;;11.34;66.07;95168.09;5025376;28;20453;-55
2022/09/22 04:51:13;;;;;;;10.90;5.87;;;11.20;99.90;;;11.37;66.18;95167.81;5026081;28;20954;-56
2022/09/22 04:53:40;;;;;;;7.80;6.47;;;11.20;99.90;;;11.39;66.33;95165.88;5025335;28;20976;-56
2022/09/22 04:56:08;;;;;;;6.00;5.50;;;11.20;99.90;;;11.43;66.22;95169.91;5025447;28;20503;-56
2022/09/22 04:58:35;;;;;;;6.27;5.70;;;11.30;99.90;;;11.45;66.15;95162.69;5025195;28;20471;-55
2022/09/22 05:01:03;;;;;;;6.63;6.13;;;11.30;99.90;;;11.47;66.11;95163.38;5025339;28;20733;-56
2022/09/22 05:03:30;;;;;;;6.27;5.77;;;11.30;99.90;;;11.51;66.37;95163.94;5024416;28;20879;-57
2022/09/22 05:05:59;;;;;;;7.07;6.47;;;11.40;99.90;;;11.53;66.19;95162.00;5025812;28;20470;-58
2022/09/22 05:08:26;;;;;;;12.83;5.57;;;11.40;99.90;;;11.56;66.33;95163.53;5025291;28;20445;-56
2022/09/22 05:10:55;;;;;;;6.53;5.93;;;11.40;99.90;;;11.58;66.04;95162.41;5025555;28;20472;-55
2022/09/22 05:13:24;;;;;;;6.60;6.10;;;11.40;99.90;;;11.61;66.34;95166.56;5025364;28;20448;-56
2022/09/22 05:15:51;;;;;;;6.37;5.77;;;11.50;99.90;;;11.63;66.09;95164.63;5025585;28;20524;-57
2022/09/22 05:18:19;;;;;;;6.67;6.07;;;11.50;99.90;;;11.66;66.34;95164.34;5025015;28;20460;-56
2022/09/22 05:20:47;;;;;;;7.20;6.30;;;11.50;99.90;;;11.70;66.14;95170.19;5025036;28;20548;-56
2022/09/22 05:23:15;;;;;;;7.13;6.43;;;11.50;99.90;;;11.75;66.16;95167.97;5024720;28;20453;-55
2022/09/22 05:25:43;;;;;;;6.10;5.70;;;11.60;99.90;;;11.78;65.80;95170.31;5025223;28;20480;-56
2022/09/22 05:28:11;;;;;;;7.57;6.90;;;11.60;99.90;;;11.81;65.81;95168.22;5023198;28;20544;-56
2022/09/22 05:30:38;;;;;;;10.13;6.33;;;11.60;99.90;;;11.87;65.83;95176.53;5024103;28;20468;-55
2022/09/22 05:33:05;;;;;;;7.43;6.30;;;11.70;99.90;;;11.90;65.67;95176.25;5023879;28;20453;-57
2022/09/22 05:35:32;;;;;;;6.87;6.27;;;11.70;99.80;;;11.94;65.69;95180.31;5024478;28;20484;-55
2022/09/22 05:38:00;;;;;;;6.03;5.53;;;11.80;99.80;;;11.98;65.63;95176.44;5025146;28;20506;-54
2022/09/22 05:40:29;;;;;;;10.77;6.60;;;11.80;99.80;;;12.00;65.65;95179.75;5026307;28;20480;-55
2022/09/22 05:42:57;;;;;;;6.80;5.97;;;11.80;99.70;;;12.04;65.44;95181.16;5028522;28;20531;-56
2022/09/22 05:45:24;;;;;;;8.00;6.90;;;11.90;99.80;;;12.09;65.66;95176.28;5030113;28;20841;-56
2022/09/22 05:47:52;;;;;;;6.70;6.10;;;11.90;99.80;;;12.15;65.61;95174.88;5028172;28;20468;-55
2022/09/22 05:50:20;;;;;;;12.60;6.60;;;12.00;99.80;;;12.19;65.43;95182.38;5027984;28;21044;-55
2022/09/22 05:52:47;;;;;;;13.90;7.23;;;12.00;99.60;;;12.23;65.07;95182.91;5029128;28;20467;-56
2022/09/22 05:55:14;;;;;;;6.23;5.73;;;12.10;99.50;;;12.26;65.34;95173.88;5027754;28;20469;-54
2022/09/22 05:57:43;;;;;;;5.33;4.93;;;12.10;99.40;;;12.30;65.27;95180.53;5028087;28;20492;-56
2022/09/22 06:00:12;;;;;;;7.37;6.27;;;12.10;99.50;;;12.35;65.00;95180.94;5027814;28;20580;-57
2022/09/22 06:02:40;;;;;;;7.00;6.30;;;12.10;99.40;;;12.42;65.00;95178.56;5025076;28;20993;-55
2022/09/22 06:05:08;;;;;;;8.40;6.13;;;12.20;99.40;;;12.46;64.71;95174.66;5026961;28;20476;-54
2022/09/22 06:07:35;;;;;;;6.63;5.83;;;12.30;99.40;;;12.51;64.73;95185.59;5027510;28;20453;-56
2022/09/22 06:10:02;;;;;;;14.10;6.27;;;12.30;99.20;;;12.58;64.52;95185.84;5026861;28;20570;-56
2022/09/22 06:12:30;;;;;;;7.50;6.80;;;12.40;99.20;;;12.66;64.40;95183.34;5027269;28;20503;-56
2022/09/22 06:14:58;;;;;;;14.03;8.17;;;12.50;99.00;;;12.75;64.88;95171.91;5027530;28;20477;-56
2022/09/22 06:17:26;;;;;;;12.50;8.20;;;12.50;99.60;;;12.87;65.08;95180.47;5027089;28;20564;-55
2022/09/22 06:19:53;;;;;;;8.30;7.50;;;12.70;99.80;;;13.01;65.17;95187.91;5027545;28;21173;-56
2022/09/22 06:22:22;;;;;;;7.47;6.70;;;12.80;99.80;;;13.16;64.71;95184.78;5027955;28;20818;-56
2022/09/22 06:24:49;;;;;;;16.63;7.00;;;12.90;99.60;;;13.30;64.33;95181.63;5027282;28;20472;-55
2022/09/22 06:27:17;;;;;;;10.57;6.57;;;13.00;99.30;;;13.45;64.08;95179.34;5027169;28;20526;-56
2022/09/22 06:29:44;;;;;;;6.23;5.73;;;13.20;99.40;;;13.63;63.99;95185.47;5027050;28;20477;-56
2022/09/22 06:32:13;;;;;;;8.67;5.73;;;13.30;99.20;;;13.78;63.43;95188.38;5027245;28;20449;-56
2022/09/22 06:34:43;;;;;;;5.43;5.03;;;13.50;98.60;;;13.89;62.82;95183.84;5026852;28;21046;-57
2022/09/22 06:37:10;;;;;;;6.07;5.43;;;13.60;98.30;;;13.92;61.95;95181.72;5025860;28;20571;-56
2022/09/22 06:39:38;;;;;;;6.40;5.80;;;13.70;97.40;;;13.91;61.77;95190.66;5026834;28;20841;-56
2022/09/22 06:42:05;;;;;;;4.87;4.53;;;13.70;97.10;;;13.86;61.51;95182.34;5026370;28;21013;-56
2022/09/22 06:44:33;;;;;;;6.10;5.53;;;13.70;97.10;;;13.84;61.47;95188.78;5027336;28;20472;-55
2022/09/22 06:47:04;;;;;;;5.43;5.03;;;13.60;97.10;;;13.76;60.76;95190.38;5026952;28;20969;-54
2022/09/22 06:49:32;;;;;;;5.53;5.13;;;13.60;96.20;;;13.71;61.32;95186.50;5027535;28;20534;-54
2022/09/22 06:52:00;;;;;;;7.03;5.40;;;13.50;96.80;;;13.70;61.67;95185.69;5027232;28;20506;-57
2022/09/22 06:54:27;;;;;;;6.80;6.10;;;13.50;96.80;;;13.69;61.65;95186.66;5026744;28;20514;-56
2022/09/22 06:56:54;;;;;;;10.17;6.00;;;13.50;96.90;;;13.67;61.11;95188.63;5027089;28;20496;-56
2022/09/22 06:59:22;;;;;;;16.03;5.10;;;13.50;96.50;;;13.62;61.00;95189.06;5025066;28;20469;-56
2022/09/22 07:01:49;;;;;;;7.30;5.40;;;13.40;96.40;;;13.63;61.17;95185.47;5026750;28;20465;-55
2022/09/22 07:04:16;;;;;;;6.30;5.70;;;13.40;96.60;;;13.62;61.32;95181.16;5026602;28;20831;-55
2022/09/22 07:06:45;;;;;;;8.50;7.17;;;13.40;96.70;;;13.64;61.12;95188.94;5026517;28;20465;-56
2022/09/22 07:09:12;;;;;;;5.97;5.40;;;13.40;96.60;;;13.66;61.21;95194.88;5026643;28;20473;-57
2022/09/22 07:11:39;;;;;;;6.77;6.17;;;13.40;96.50;;;13.69;61.03;95193.75;5026805;28;20563;-57
2022/09/22 07:14:07;;;;;;;8.00;5.37;;;13.40;96.30;;;13.73;60.90;95197.78;5027056;28;20464;-56
2022/09/22 07:16:34;;;;;;;7.33;5.93;;;13.50;96.20;;;13.77;60.77;95188.53;5025577;28;20524;-56
2022/09/22 07:19:02;;;;;;;5.30;4.90;;;13.50;96.20;;;13.82;60.80;95188.94;5026441;28;20479;-55
2022/09/22 07:21:34;;;;;;;8.30;5.13;;;13.60;96.20;;;13.87;60.46;95191.13;5025790;28;20973;-57
2022/09/22 07:24:02;;;;;;;5.80;5.20;;;13.60;96.20;;;13.93;60.40;95190.50;5025914;28;21022;-56
2022/09/22 07:26:31;;;;;;;9.03;4.57;;;13.70;96.30;;;14.00;60.65;95194.19;5023688;28;20460;-57
2022/09/22 07:28:59;;;;;;;5.10;4.77;;;13.80;96.00;;;14.13;60.26;95188.53;5026496;28;20542;-56
2022/09/22 07:31:29;;;;;;;4.57;4.27;;;13.90;95.90;;;14.42;60.04;95187.38;5025366;28;20453;-55
2022/09/22 07:33:59;;;;;;;8.70;4.73;;;14.10;95.80;;;14.67;59.10;95188.38;5025773;28;20472;-58
2022/09/22 07:36:27;;;;;;;5.87;5.27;;;14.40;95.40;;;14.94;59.16;95184.72;5026130;28;20457;-56
2022/09/22 07:38:56;;;;;;;5.30;4.93;;;14.60;95.30;;;15.37;58.89;95176.78;5023682;28;20473;-56
2022/09/22 07:41:26;;;;;;;16.90;4.73;;;15.00;95.10;;;15.95;58.20;95175.03;5026113;28;20463;-55
2022/09/22 07:43:55;;;;;;;4.67;4.27;;;15.60;94.70;;;16.71;56.43;95172.13;5025266;28;20484;-58
2022/09/22 07:46:22;;;;;;;10.67;4.10;;;16.40;93.60;;;17.51;55.42;95172.00;5025515;28;20453;-56
2022/09/22 07:48:49;;;;;;;3.73;3.50;;;17.30;92.60;;;18.08;53.04;95169.97;5026195;28;20480;-56
2022/09/22 07:51:18;;;;;;;3.87;3.30;;;17.80;90.60;;;18.37;52.17;95181.69;5026055;28;20449;-55
2022/09/22 07:53:46;;;;;;;3.33;3.13;;;18.20;89.30;;;18.46;51.26;95177.94;5024921;28;20994;-57
2022/09/22 07:56:15;;;;;;;4.70;3.57;;;18.30;85.70;;;18.49;50.46;95180.25;5024467;28;20445;-55
2022/09/22 07:58:49;;;;;;;4.90;3.53;;;18.40;84.50;;;18.58;50.25;95183.69;5025132;28;20909;-57
2022/09/22 08:01:16;;;;;;;7.00;3.80;;;18.50;83.40;;;18.86;49.79;95175.09;5025718;28;20862;-56
2022/09/22 08:03:46;;;;;;;5.47;3.60;;;18.60;82.10;;;19.25;49.29;95180.09;5024983;28;20504;-55
2022/09/22 08:06:14;;;;;;;3.70;2.90;;;18.90;81.20;;;19.46;48.46;95171.34;5025869;28;20507;-57
2022/09/22 08:08:42;;;;;;;3.37;2.80;;;19.20;78.90;;;19.60;48.50;95166.97;5025364;28;20522;-56
2022/09/22 08:11:13;;;;;;;2.07;1.97;;;19.40;78.00;;;19.61;45.77;95168.66;5024772;28;20452;-55
2022/09/22 08:13:41;;;;;;;2.43;2.33;;;19.40;70.80;;;19.61;46.97;95178.47;5022649;28;20881;-55
2022/09/22 08:16:10;;;;;;;5.00;3.27;;;19.40;73.40;;;19.92;46.69;95178.22;5025641;28;20507;-56
2022/09/22 08:18:38;;;;;;;2.97;2.20;;;19.70;73.00;;;20.39;45.82;95168.78;5025253;28;20866;-58
2022/09/22 08:21:06;;;;;;;3.50;2.20;;;20.10;72.00;;;20.95;44.89;95165.28;5025490;28;20463;-56
2022/09/22 08:23:33;;;;;;;2.20;2.10;;;20.60;69.90;;;21.47;43.50;95162.22;5025223;28;20449;-57
2022/09/22 08:26:04;;;;;;;2.27;2.17;;;21.20;66.90;;;21.93;42.49;95158.06;5025724;28;20522;-57
2022/09/22 08:28:32;;;;;;;2.10;1.90;;;21.60;64.80;;;22.10;40.60;95163.84;5025144;28;20449;-56
2022/09/22 08:30:59;;;;;;;2.20;2.10;;;21.80;60.40;;;21.97;38.10;95151.28;5024704;28;20515;-57
2022/09/22 08:33:29;;;;;;;2.20;2.10;;;21.80;56.50;;;21.64;41.02;95160.88;5024167;28;20471;-56
2022/09/22 08:36:02;;;;;;;6.00;2.57;;;21.50;58.60;;;21.32;41.42;95157.03;5024888;28;20481;-56
2022/09/22 08:38:29;;;;;;;3.97;2.73;;;21.20;59.30;;;21.24;41.47;95152.69;5022676;28;20579;-56
2022/09/22 08:41:17;;;;;;;2.30;2.10;;;21.00;59.40;;;21.47;40.93;95146.16;5028059;28;20532;-57
2022/09/22 08:43:51;;;;;;;1.60;1.50;;;21.10;59.00;;;21.74;41.05;95138.25;5023175;28;20526;-57
2022/09/22 08:46:18;;;;;;;2.20;1.40;;;21.30;59.70;;;22.03;39.71;95145.09;5025116;28;20811;-57
2022/09/22 08:51:54;;;;;;;1.43;1.33;;;21.80;57.70;;;22.69;37.60;95140.78;5021341;28;20532;-58
2022/09/22 08:54:26;;;;;;;2.50;1.63;;;22.10;56.30;;;23.05;37.86;95136.75;5025006;28;20500;-57
2022/09/22 08:57:10;;;;;;;1.73;1.63;;;22.50;55.50;;;23.36;38.61;95136.09;5025210;28;20449;-57
2022/09/22 08:59:43;;;;;;;2.17;1.97;;;22.80;56.90;;;23.56;38.02;95137.84;5023286;28;20484;-56
2022/09/22 09:02:41;;;;;;;1.77;1.53;;;23.00;55.90;;;23.65;35.12;95141.91;5024920;28;20448;-57
2022/09/22 09:05:53;;;;;;;2.53;1.83;;;23.10;51.80;;;23.60;35.41;95139.88;5023669;28;20472;-57
2022/09/22 09:08:41;;;;;;;1.93;1.80;;;23.10;51.60;;;23.41;35.46;95138.13;5024442;28;20520;-57
2022/09/22 09:11:19;;;;;;;2.90;2.20;;;23.00;51.60;;;23.08;36.63;95149.75;5023776;28;20544;-57
2022/09/22 09:13:59;;;;;;;5.10;2.03;;;22.80;52.40;;;22.69;36.54;95143.47;5023819;28;20526;-57
2022/09/22 09:16:37;;;;;;;2.30;1.37;;;22.40;53.70;;;22.30;37.54;95145.97;5027507;28;20475;-57
2022/09/22 09:19:06;;;;;;;1.40;1.30;;;22.00;52.50;;;22.07;38.18;95135.59;5027660;28;21012;-57
2022/09/22 09:21:35;;;;;;;1.63;1.53;;;21.80;53.10;;;22.12;37.49;95135.84;5027182;28;20531;-57
2022/09/22 09:24:05;;;;;;;1.60;1.50;;;21.70;52.90;;;22.34;37.76;95124.94;5026772;28;20538;-55
2022/09/22 09:26:34;;;;;;;1.60;1.50;;;21.80;53.10;;;22.60;37.59;95123.25;5028889;28;20480;-55
2022/09/22 09:29:04;;;;;;;1.40;1.30;;;22.10;53.90;;;22.71;36.51;95115.41;5025438;28;21084;-57
2022/09/22 09:31:33;;;;;;;5.43;1.43;;;22.20;52.00;;;22.82;36.91;95113.94;5028846;28;20546;-55
2022/09/22 09:34:02;;;;;;;1.47;1.37;;;22.30;52.40;;;22.95;36.87;95125.66;5027797;28;20475;-59
2022/09/22 09:36:32;;;;;;;1.73;1.57;;;22.40;52.10;;;23.02;36.61;95119.25;5028933;28;20448;-56
2022/09/22 09:39:08;;;;;;;7.20;1.83;;;22.50;51.60;;;23.09;36.97;95116.56;5030776;28;20496;-56
2022/09/22 09:41:36;;;;;;;4.13;1.43;;;22.60;51.90;;;23.23;36.59;95120.03;5025459;28;20836;-58
2022/09/22 09:44:03;;;;;;;1.57;1.03;;;22.70;51.30;;;23.43;35.65;95111.88;5026641;28;20490;-56
2022/09/22 09:46:41;;;;;;;6.07;2.67;;;22.90;51.50;;;23.62;36.09;95110.97;5024947;28;20589;-56
2022/09/22 09:49:13;;;;;;;9.07;3.80;;;23.10;51.70;;;23.71;36.06;95113.38;5023889;28;20480;-58
2022/09/22 09:51:43;;;;;;;4.87;3.30;;;23.20;51.70;;;23.87;36.35;95117.44;5025497;28;20480;-57
2022/09/22 09:54:13;;;;;;;4.10;1.90;;;23.40;51.60;;;23.99;34.96;95115.72;5026345;28;21012;-57
2022/09/22 09:57:02;;;;;;;1.33;1.23;;;23.50;50.70;;;24.12;33.66;95109.41;5029323;28;20908;-57
2022/09/22 10:02:15;;;;;;;2.17;1.40;;;23.70;50.30;;;24.19;34.78;95104.81;5027702;28;20991;-57
2022/09/22 10:04:43;;;;;;;1.67;1.57;;;23.80;49.30;;;24.08;34.51;95103.66;5026417;28;20538;-58
2022/09/22 10:07:15;;;;;;;2.30;1.40;;;23.70;49.90;;;24.11;34.33;95105.09;5025190;28;20972;-56
2022/09/22 10:09:44;;;;;;;1.50;1.40;;;23.70;48.20;;;24.19;34.12;95107.50;5028041;28;20574;-59
2022/09/22 10:12:23;;;;;;;1.50;1.40;;;23.70;48.70;;;24.20;32.59;95101.09;5026215;28;20457;-57
2022/09/22 10:14:51;;;;;;;6.10;2.80;;;23.70;47.70;;;24.15;34.36;95104.44;5026863;28;20472;-57
2022/09/22 10:17:22;;;;;;;2.90;1.33;;;23.70;48.00;;;24.16;34.00;95099.88;5028087;28;20461;-57
2022/09/22 10:19:50;;;;;;;4.30;1.17;;;23.70;47.70;;;24.17;33.96;95101.53;5025949;28;20472;-57
2022/09/22 10:22:26;;;;;;;4.77;1.83;;;23.70;48.00;;;24.21;34.15;95096.53;5023674;28;20457;-57
2022/09/22 10:24:58;;;;;;;4.63;1.37;;;23.80;48.40;;;24.30;33.04;95090.66;5025607;28;20507;-59
2022/09/22 10:27:27;;;;;;;4.13;1.30;;;23.80;47.60;;;24.41;34.09;95090.97;5023530;28;20527;-56
2022/09/22 10:30:21;;;;;;;4.60;1.40;;;23.90;49.10;;;24.48;32.87;95081.00;5025068;28;20480;-58
2022/09/22 10:33:14;;;;;;;4.17;1.30;;;24.00;47.70;;;24.40;32.23;95082.09;5025933;28;20447;-58
2022/09/22 10:35:43;;;;;;;2.53;1.70;;;24.00;46.90;;;24.19;33.83;95083.31;5024988;28;20473;-57
2022/09/22 10:38:17;;;;;;;4.07;1.93;;;23.80;47.20;;;23.92;33.94;95088.91;5027330;28;20794;-57